Time;durP1;ratioP1;P1;durP2;ratioP2;P2;SDS_P1;SDS_P2;PMS_P1;PMS_P2;Temp;Humidity;BMP_temperature;BMP_pressure;BME280_temperature;BME280_humidity;BME280_pressure;Samples;Min_cycle;Max_cycle;Signal;HPM_P1;HPM_P2
2022/04/17 00:01:04;;;;;;;6.53;5.80;;;3.30;99.90;;;;;;5075909;28;20201;-74
2022/04/17 00:03:32;;;;;;;7.27;5.37;;;3.20;99.90;;;;;;5076110;28;20201;-75
2022/04/17 00:05:59;;;;;;;7.07;5.93;;;3.10;99.90;;;;;;5076113;28;20205;-75
2022/04/17 00:08:27;;;;;;;9.20;5.67;;;3.10;99.90;;;;;;5075821;28;20652;-75
2022/04/17 00:10:53;;;;;;;7.53;6.27;;;3.00;99.90;;;;;;5075772;28;20236;-75
2022/04/17 00:13:21;;;;;;;8.20;6.23;;;3.10;99.90;;;;;;5075746;28;20203;-75
2022/04/17 00:15:49;;;;;;;9.27;6.03;;;3.10;99.90;;;;;;5074452;28;20197;-74
2022/04/17 00:18:17;;;;;;;7.43;5.50;;;3.10;99.90;;;;;;5075798;28;20246;-74
2022/04/17 00:20:43;;;;;;;5.70;5.10;;;3.00;99.90;;;;;;5075282;28;20201;-74
2022/04/17 00:23:10;;;;;;;7.40;5.70;;;3.10;99.90;;;;;;5075220;28;20233;-75
2022/04/17 00:25:37;;;;;;;6.40;5.80;;;3.10;99.90;;;;;;5074733;28;20197;-76
2022/04/17 00:28:05;;;;;;;7.83;5.50;;;3.10;99.90;;;;;;5075580;28;20208;-75
2022/04/17 00:30:32;;;;;;;6.63;5.37;;;3.00;99.90;;;;;;5075781;28;20204;-75
2022/04/17 00:33:00;;;;;;;6.17;5.53;;;3.00;99.90;;;;;;5075545;28;20292;-74
2022/04/17 00:35:27;;;;;;;6.47;5.70;;;3.10;99.90;;;;;;5075643;28;20714;-75
2022/04/17 00:37:53;;;;;;;6.53;5.87;;;2.90;99.90;;;;;;5075575;28;20247;-75
2022/04/17 00:40:20;;;;;;;7.10;5.40;;;3.00;99.90;;;;;;5075660;28;20192;-75
2022/04/17 00:42:47;;;;;;;7.80;5.80;;;2.80;99.90;;;;;;5075381;28;20205;-75
2022/04/17 00:45:14;;;;;;;6.63;5.90;;;2.70;99.90;;;;;;5075634;28;20232;-75
2022/04/17 00:47:41;;;;;;;6.10;5.20;;;2.70;99.90;;;;;;5075696;28;20195;-74
2022/04/17 00:50:10;;;;;;;7.43;6.13;;;2.70;99.90;;;;;;5075285;28;20231;-75
2022/04/17 00:52:38;;;;;;;6.67;5.97;;;2.70;99.90;;;;;;5074877;28;20290;-74
2022/04/17 00:55:06;;;;;;;7.40;6.20;;;2.70;99.90;;;;;;5075082;28;20203;-74
2022/04/17 00:57:34;;;;;;;8.57;6.77;;;2.60;99.90;;;;;;5075277;28;20603;-75
2022/04/17 01:00:02;;;;;;;7.77;6.50;;;2.50;99.90;;;;;;5075181;28;20201;-75
2022/04/17 01:02:29;;;;;;;8.70;6.73;;;2.50;99.90;;;;;;5075051;28;20209;-75
2022/04/17 01:04:55;;;;;;;8.53;6.93;;;2.30;99.90;;;;;;5074807;28;20197;-74
2022/04/17 01:07:24;;;;;;;7.43;6.63;;;2.20;99.90;;;;;;5075169;28;20197;-75
2022/04/17 01:09:51;;;;;;;7.80;6.97;;;2.00;99.90;;;;;;5074648;28;20197;-75
2022/04/17 01:12:19;;;;;;;8.57;6.87;;;2.00;99.90;;;;;;5074869;28;20240;-74
2022/04/17 01:14:46;;;;;;;7.33;6.63;;;2.20;99.90;;;;;;5074701;28;20291;-75
2022/04/17 01:17:13;;;;;;;9.23;6.77;;;2.30;99.90;;;;;;5074745;28;20556;-75
2022/04/17 01:19:40;;;;;;;7.13;6.43;;;2.20;99.90;;;;;;5074642;28;20284;-74
2022/04/17 01:22:10;;;;;;;7.40;6.30;;;2.10;99.90;;;;;;5074434;28;20259;-75
2022/04/17 01:27:23;;;;;;;8.93;6.30;;;2.10;99.90;;;;;;5074797;28;20619;-74
2022/04/17 01:29:51;;;;;;;8.27;6.73;;;2.10;99.90;;;;;;5076606;28;20246;-75
2022/04/17 01:32:18;;;;;;;7.73;6.87;;;2.20;99.90;;;;;;5080130;28;20224;-75
2022/04/17 01:34:45;;;;;;;8.97;7.10;;;2.00;99.90;;;;;;5076927;28;20260;-74
2022/04/17 01:37:14;;;;;;;11.60;7.63;;;2.00;99.90;;;;;;5079023;28;20221;-74
2022/04/17 01:39:41;;;;;;;7.60;6.67;;;2.00;99.90;;;;;;5081551;28;20228;-74
2022/04/17 01:42:08;;;;;;;8.63;7.20;;;1.60;99.90;;;;;;5076386;28;20201;-74
2022/04/17 01:44:35;;;;;;;9.00;7.57;;;1.80;99.90;;;;;;5075487;28;20250;-75
2022/04/17 01:47:03;;;;;;;9.03;7.70;;;1.80;99.90;;;;;;5074761;28;20204;-75
2022/04/17 01:49:29;;;;;;;8.80;7.00;;;1.90;99.90;;;;;;5074170;28;20529;-74
2022/04/17 01:51:57;;;;;;;7.80;6.90;;;1.90;99.90;;;;;;5073974;28;20282;-74
2022/04/17 01:54:26;;;;;;;10.10;7.50;;;1.90;99.90;;;;;;5074242;28;20200;-75
2022/04/17 01:56:53;;;;;;;12.33;7.07;;;1.90;99.90;;;;;;5074077;28;20193;-75
2022/04/17 01:59:21;;;;;;;12.43;7.23;;;1.90;99.90;;;;;;5074136;28;20231;-75
2022/04/17 02:01:48;;;;;;;8.10;7.17;;;1.80;99.90;;;;;;5073783;28;20202;-74
2022/04/17 02:04:15;;;;;;;8.87;6.73;;;1.80;99.90;;;;;;5073588;28;20738;-75
2022/04/17 02:06:43;;;;;;;10.80;7.30;;;1.60;99.90;;;;;;5074238;28;20197;-75
2022/04/17 02:09:12;;;;;;;8.87;7.23;;;1.60;99.90;;;;;;5073991;28;20537;-75
2022/04/17 02:11:40;;;;;;;8.93;7.10;;;1.70;99.90;;;;;;5073748;28;20699;-75
2022/04/17 02:14:09;;;;;;;8.57;7.67;;;1.50;99.90;;;;;;5074094;28;20201;-75
2022/04/17 02:16:35;;;;;;;8.80;7.70;;;1.40;99.90;;;;;;5083576;28;20264;-75
2022/04/17 02:19:03;;;;;;;8.47;7.47;;;1.40;99.90;;;;;;5083966;28;20201;-75
2022/04/17 02:21:30;;;;;;;10.10;7.53;;;1.40;99.90;;;;;;5084347;28;20286;-75
2022/04/17 02:23:57;;;;;;;9.07;7.10;;;1.40;99.90;;;;;;5086089;28;20269;-76
2022/04/17 02:26:23;;;;;;;11.77;7.63;;;1.40;99.90;;;;;;5085838;28;20197;-75
2022/04/17 02:28:56;;;;;;;8.07;6.70;;;1.40;99.90;;;;;;5086185;28;20258;-75
2022/04/17 02:31:23;;;;;;;9.13;7.30;;;1.40;99.90;;;;;;5087039;28;20228;-75
2022/04/17 02:33:50;;;;;;;9.03;7.07;;;1.30;99.90;;;;;;5083491;28;20197;-75
2022/04/17 02:36:17;;;;;;;9.17;7.33;;;1.10;99.90;;;;;;5084089;28;20288;-75
2022/04/17 02:38:44;;;;;;;9.17;8.13;;;0.90;99.90;;;;;;5081548;28;20227;-75
2022/04/17 02:41:10;;;;;;;20.33;8.27;;;0.80;99.90;;;;;;5076236;28;20205;-75
2022/04/17 02:43:37;;;;;;;12.70;8.47;;;0.90;99.90;;;;;;5074236;28;20255;-76
2022/04/17 02:46:05;;;;;;;13.63;8.80;;;0.70;99.90;;;;;;5073815;28;20201;-74
2022/04/17 02:48:34;;;;;;;14.20;8.83;;;0.80;99.90;;;;;;5073552;28;20196;-75
2022/04/17 02:51:01;;;;;;;22.07;12.07;;;0.90;99.90;;;;;;5075924;28;20284;-75
2022/04/17 02:53:27;;;;;;;18.67;11.67;;;0.80;99.90;;;;;;5077384;28;20264;-75
2022/04/17 02:55:54;;;;;;;18.23;11.13;;;0.60;99.90;;;;;;5082933;28;20254;-75
2022/04/17 02:58:20;;;;;;;13.30;9.50;;;0.30;99.90;;;;;;5085042;28;20248;-74
2022/04/17 03:06:17;;;;;;;13.47;9.53;;;0.10;99.90;;;;;;5079159;28;20200;-75
2022/04/17 03:08:44;;;;;;;12.10;9.00;;;0.10;99.90;;;;;;5078799;28;20228;-75
2022/04/17 03:11:11;;;;;;;12.10;9.57;;;0.10;99.90;;;;;;5078109;28;20196;-75
2022/04/17 03:13:38;;;;;;;12.00;9.63;;;0.20;99.90;;;;;;5073438;28;20709;-75
2022/04/17 03:16:08;;;;;;;14.33;10.40;;;0.40;99.90;;;;;;5073478;28;20638;-75
2022/04/17 03:18:36;;;;;;;14.77;11.73;;;0.40;99.90;;;;;;5073108;28;20602;-75
2022/04/17 03:21:03;;;;;;;16.33;12.80;;;0.30;99.90;;;;;;5072781;28;20196;-74
2022/04/17 03:23:31;;;;;;;15.03;11.83;;;0.20;99.90;;;;;;5073020;28;20572;-74
2022/04/17 03:25:57;;;;;;;14.13;11.40;;;0.50;99.90;;;;;;5073135;28;20201;-75
2022/04/17 03:28:24;;;;;;;15.27;11.70;;;0.50;99.90;;;;;;5073101;28;20254;-74
2022/04/17 03:30:51;;;;;;;15.10;11.13;;;0.30;99.90;;;;;;5072831;28;20594;-75
2022/04/17 03:33:17;;;;;;;16.37;12.37;;;0.10;99.90;;;;;;5072523;28;20278;-74
2022/04/17 03:35:45;;;;;;;12.53;10.47;;;-0.10;99.90;;;;;;5072893;28;20203;-74
2022/04/17 03:38:12;;;;;;;15.97;11.73;;;-0.10;99.90;;;;;;5072743;28;20722;-74
2022/04/17 03:40:40;;;;;;;14.37;11.57;;;0.10;99.90;;;;;;5072878;28;20250;-74
2022/04/17 03:43:06;;;;;;;17.57;11.87;;;0.00;99.90;;;;;;5072744;28;20211;-74
2022/04/17 03:45:33;;;;;;;15.80;11.23;;;-0.20;99.90;;;;;;5072702;28;20679;-75
2022/04/17 03:48:00;;;;;;;13.77;10.93;;;-0.20;99.90;;;;;;5072671;28;20232;-74
2022/04/17 03:50:27;;;;;;;14.63;11.40;;;-0.20;99.90;;;;;;5072449;28;20557;-74
2022/04/17 03:52:55;;;;;;;16.13;11.00;;;-0.20;99.90;;;;;;5072623;28;20263;-74
2022/04/17 03:55:22;;;;;;;14.40;11.47;;;-0.20;99.90;;;;;;5072721;28;20201;-74
2022/04/17 03:57:49;;;;;;;14.87;11.87;;;-0.30;99.90;;;;;;5072552;28;20243;-75
2022/04/17 04:00:16;;;;;;;13.90;11.00;;;-0.40;99.90;;;;;;5074658;28;20201;-74
2022/04/17 04:02:44;;;;;;;15.00;11.80;;;-0.40;99.90;;;;;;5076644;28;20657;-74
2022/04/17 04:05:11;;;;;;;13.70;11.53;;;-0.40;99.90;;;;;;5077244;28;20204;-74
2022/04/17 04:07:39;;;;;;;13.63;11.43;;;-0.50;99.90;;;;;;5077735;28;20197;-74
2022/04/17 04:10:09;;;;;;;15.33;11.07;;;-0.20;99.90;;;;;;5076993;28;20548;-74
2022/04/17 04:12:36;;;;;;;12.77;10.67;;;-0.40;99.90;;;;;;5077742;28;20267;-74
2022/04/17 04:15:03;;;;;;;13.33;10.40;;;-0.50;99.90;;;;;;5077118;28;20274;-75
2022/04/17 04:17:30;;;;;;;15.90;11.83;;;-0.60;99.90;;;;;;5076695;28;20246;-74
2022/04/17 04:19:56;;;;;;;15.70;11.57;;;-0.50;99.90;;;;;;5078033;28;20254;-74
2022/04/17 04:22:23;;;;;;;15.40;11.50;;;-0.60;99.90;;;;;;5077391;28;20247;-74
2022/04/17 04:24:50;;;;;;;17.30;11.70;;;-0.50;99.90;;;;;;5077494;28;20249;-74
2022/04/17 04:30:02;;;;;;;14.60;11.37;;;-0.70;99.90;;;;;;5076484;28;20287;-75
2022/04/17 04:32:29;;;;;;;15.13;11.53;;;-0.70;99.90;;;;;;5076292;28;20298;-74
2022/04/17 04:34:59;;;;;;;18.07;12.10;;;-0.70;99.90;;;;;;5076393;28;20250;-74
2022/04/17 04:37:26;;;;;;;14.87;12.23;;;-0.60;99.90;;;;;;5077843;28;20193;-75
2022/04/17 04:39:53;;;;;;;13.03;10.63;;;-0.50;99.90;;;;;;5076399;28;20209;-74
2022/04/17 04:42:21;;;;;;;15.07;11.20;;;-0.60;99.90;;;;;;5076058;28;20537;-74
2022/04/17 04:46:06;;;;;;;15.00;10.67;;;-0.60;99.90;;;;;;5075850;28;20205;-73
2022/04/17 04:47:34;;;;;;;15.27;11.27;;;-0.60;99.90;;;;;;5077097;28;20243;-75
2022/04/17 04:50:01;;;;;;;15.37;11.07;;;-0.60;99.90;;;;;;5075166;28;20201;-75
2022/04/17 04:52:27;;;;;;;15.13;11.10;;;-0.50;99.90;;;;;;5075084;28;20216;-75
2022/04/17 04:54:54;;;;;;;91.23;48.07;;;-0.50;99.90;;;;;;5074542;28;20649;-75
2022/04/17 04:57:22;;;;;;;26.47;17.17;;;-0.50;99.90;;;;;;5074832;28;20667;-73
2022/04/17 04:59:49;;;;;;;13.07;10.00;;;-0.50;99.90;;;;;;5075281;28;20193;-74
2022/04/17 05:02:16;;;;;;;12.13;9.87;;;-0.50;99.90;;;;;;5075182;28;20223;-75
2022/04/17 05:04:43;;;;;;;12.87;9.97;;;-0.40;99.90;;;;;;5074801;28;20670;-75
2022/04/17 05:07:09;;;;;;;11.37;9.47;;;-0.40;99.90;;;;;;5074891;28;20304;-75
2022/04/17 05:09:36;;;;;;;10.27;9.20;;;-0.40;99.90;;;;;;5074779;28;20714;-74
2022/04/17 05:12:04;;;;;;;11.97;9.23;;;-0.30;99.90;;;;;;5074729;28;20208;-75
2022/04/17 05:14:32;;;;;;;16.57;9.97;;;-0.30;99.90;;;;;;5074904;28;20197;-75
2022/04/17 05:16:58;;;;;;;9.90;8.77;;;-0.10;99.90;;;;;;5074915;28;20196;-74
2022/04/17 05:19:27;;;;;;;10.50;8.90;;;0.10;99.90;;;;;;5074829;28;20201;-74
2022/04/17 05:21:57;;;;;;;10.10;8.87;;;0.30;99.90;;;;;;5074610;28;20778;-74
2022/04/17 05:24:24;;;;;;;13.43;9.17;;;0.50;99.90;;;;;;5075275;28;20632;-74
2022/04/17 05:26:51;;;;;;;10.53;8.17;;;0.60;99.90;;;;;;5075059;28;20247;-74
2022/04/17 05:29:18;;;;;;;9.90;8.53;;;0.60;99.90;;;;;;5074535;28;20232;-74
2022/04/17 05:31:46;;;;;;;10.53;8.37;;;0.50;99.90;;;;;;5074559;28;20568;-75
2022/04/17 05:34:13;;;;;;;10.67;8.60;;;0.50;99.90;;;;;;5074369;28;20229;-74
2022/04/17 05:36:39;;;;;;;12.23;8.03;;;0.50;99.90;;;;;;5074357;28;20205;-75
2022/04/17 05:39:06;;;;;;;12.27;8.60;;;0.60;99.90;;;;;;5074352;28;20246;-74
2022/04/17 05:41:34;;;;;;;11.80;8.40;;;0.80;99.90;;;;;;5074556;28;20223;-74
2022/04/17 05:44:02;;;;;;;11.97;9.57;;;0.90;99.90;;;;;;5074361;28;20208;-75
2022/04/17 05:46:29;;;;;;;11.00;9.07;;;0.90;99.90;;;;;;5074222;28;20204;-75
2022/04/17 05:48:58;;;;;;;10.33;8.27;;;1.00;99.90;;;;;;5073994;28;20201;-75
2022/04/17 05:51:25;;;;;;;9.90;7.87;;;1.30;99.90;;;;;;5074135;28;20193;-75
2022/04/17 05:53:51;;;;;;;11.93;8.90;;;1.40;99.90;;;;;;5074187;28;20227;-75
2022/04/17 05:56:18;;;;;;;10.30;8.30;;;1.50;99.90;;;;;;5073983;28;20193;-75
2022/04/17 05:58:45;;;;;;;10.00;8.67;;;1.40;99.90;;;;;;5073960;28;20571;-75
2022/04/17 06:01:11;;;;;;;9.90;8.30;;;1.50;99.90;;;;;;5073492;28;20208;-75
2022/04/17 06:03:38;;;;;;;9.10;7.67;;;1.70;99.90;;;;;;5074185;28;20251;-75
2022/04/17 06:06:06;;;;;;;11.00;7.70;;;1.80;99.90;;;;;;5074097;28;20193;-74
2022/04/17 06:08:33;;;;;;;8.63;7.30;;;1.90;99.90;;;;;;5074264;28;20193;-75
2022/04/17 06:10:59;;;;;;;12.67;7.73;;;2.00;99.90;;;;;;5074470;28;20201;-75
2022/04/17 06:13:26;;;;;;;8.03;6.97;;;2.10;99.90;;;;;;5073788;28;20225;-75
2022/04/17 06:15:53;;;;;;;9.13;8.10;;;2.20;99.90;;;;;;5074248;28;20235;-75
2022/04/17 06:18:19;;;;;;;9.50;7.73;;;2.30;99.90;;;;;;5074245;28;20197;-75
2022/04/17 06:20:46;;;;;;;8.10;7.30;;;2.40;99.90;;;;;;5073886;28;20648;-75
2022/04/17 06:23:14;;;;;;;10.40;7.43;;;2.60;99.90;;;;;;5072831;28;20634;-75
2022/04/17 06:25:41;;;;;;;9.30;7.57;;;2.70;99.90;;;;;;5074179;28;20197;-75
2022/04/17 06:28:08;;;;;;;7.50;6.70;;;3.00;99.90;;;;;;5073802;28;20247;-74
2022/04/17 06:30:34;;;;;;;11.67;7.07;;;3.10;99.90;;;;;;5073752;28;20227;-75
2022/04/17 06:33:01;;;;;;;10.80;7.40;;;3.20;99.90;;;;;;5073970;28;20243;-75
2022/04/17 06:35:28;;;;;;;9.40;6.73;;;3.30;99.90;;;;;;5074138;28;20242;-75
2022/04/17 06:37:56;;;;;;;9.83;6.77;;;3.40;99.90;;;;;;5074431;28;20653;-75
2022/04/17 06:40:25;;;;;;;8.13;6.03;;;3.60;99.90;;;;;;5074429;28;20258;-75
2022/04/17 06:42:54;;;;;;;7.80;5.77;;;3.80;99.90;;;;;;5076304;28;20203;-75
2022/04/17 06:45:22;;;;;;;5.33;4.53;;;4.00;99.90;;;;;;5083155;28;20198;-75
2022/04/17 06:47:49;;;;;;;8.80;5.70;;;4.10;99.90;;;;;;5086478;28;20247;-76
2022/04/17 06:50:18;;;;;;;7.27;5.33;;;4.40;99.90;;;;;;5086176;28;20289;-75
2022/04/17 06:52:45;;;;;;;7.43;5.57;;;4.50;99.90;;;;;;5084738;28;20677;-75
2022/04/17 06:55:12;;;;;;;6.03;5.00;;;4.60;99.90;;;;;;5085666;28;20195;-77
2022/04/17 06:57:46;;;;;;;6.13;4.27;;;4.70;99.90;;;;;;5083011;28;20203;-74
2022/04/17 07:00:14;;;;;;;6.33;4.87;;;4.90;99.90;;;;;;5081180;28;20260;-75
2022/04/17 07:02:42;;;;;;;6.03;4.70;;;5.10;99.90;;;;;;5078556;28;20200;-76
2022/04/17 07:05:09;;;;;;;6.23;5.13;;;5.30;99.90;;;;;;5073914;28;20277;-75
2022/04/17 07:07:36;;;;;;;7.07;4.70;;;5.40;99.90;;;;;;5073970;28;20200;-76
2022/04/17 07:10:04;;;;;;;7.13;5.53;;;5.60;99.90;;;;;;5073464;28;20238;-75
2022/04/17 07:12:31;;;;;;;6.50;5.20;;;5.70;99.90;;;;;;5073133;28;20285;-75
2022/04/17 07:15:00;;;;;;;6.63;5.10;;;5.90;99.90;;;;;;5072864;28;20196;-75
2022/04/17 07:17:34;;;;;;;6.73;5.27;;;6.00;99.90;;;;;;5073085;28;20299;-76
2022/04/17 07:20:01;;;;;;;7.60;5.43;;;6.10;99.90;;;;;;5072576;28;20197;-76
2022/04/17 07:22:28;;;;;;;7.97;5.57;;;6.30;99.90;;;;;;5072804;28;20282;-75
2022/04/17 07:24:54;;;;;;;7.23;5.20;;;6.40;99.90;;;;;;5072351;28;20205;-75
2022/04/17 07:27:21;;;;;;;6.53;5.50;;;6.50;99.90;;;;;;5072493;28;20664;-75
2022/04/17 07:29:48;;;;;;;6.93;5.30;;;6.70;99.90;;;;;;5072684;28;20626;-75
2022/04/17 07:32:16;;;;;;;8.33;5.20;;;7.00;99.90;;;;;;5072384;28;20221;-74
2022/04/17 07:34:43;;;;;;;7.27;5.10;;;7.20;99.90;;;;;;5075376;28;20229;-76
2022/04/17 07:37:09;;;;;;;7.60;5.23;;;7.20;99.90;;;;;;5076377;28;20193;-75
2022/04/17 07:39:36;;;;;;;6.40;4.90;;;7.40;99.90;;;;;;5075994;28;20664;-74
2022/04/17 07:42:03;;;;;;;6.23;5.47;;;7.60;99.90;;;;;;5076274;28;20246;-75
2022/04/17 07:44:32;;;;;;;6.83;5.20;;;7.80;99.90;;;;;;5076744;28;20213;-75
2022/04/17 07:46:59;;;;;;;6.10;4.40;;;7.90;99.90;;;;;;5076779;28;20228;-76
2022/04/17 07:49:27;;;;;;;5.50;4.80;;;8.00;99.90;;;;;;5076669;28;20243;-75
2022/04/17 07:51:54;;;;;;;6.53;4.37;;;8.00;99.90;;;;;;5076313;28;20200;-74
2022/04/17 07:54:21;;;;;;;6.63;5.07;;;8.30;99.90;;;;;;5076598;28;20221;-74
2022/04/17 07:56:48;;;;;;;7.23;4.50;;;8.60;99.90;;;;;;5076613;28;20203;-75
2022/04/17 07:59:14;;;;;;;6.57;4.50;;;8.60;99.90;;;;;;5076724;28;20274;-76
2022/04/17 08:01:43;;;;;;;5.30;3.47;;;8.70;99.90;;;;;;5076496;28;20206;-76
2022/04/17 08:04:09;;;;;;;4.50;3.60;;;8.70;99.90;;;;;;5075937;28;20201;-76
2022/04/17 08:06:37;;;;;;;4.73;3.87;;;8.90;99.10;;;;;;5075674;28;20255;-74
2022/04/17 08:09:04;;;;;;;6.50;3.67;;;9.00;97.60;;;;;;5076070;28;20204;-75
2022/04/17 08:11:30;;;;;;;4.90;3.23;;;9.00;97.00;;;;;;5075840;28;20277;-75
2022/04/17 08:13:57;;;;;;;4.47;3.50;;;9.20;92.10;;;;;;5075374;28;20243;-74
2022/04/17 08:16:24;;;;;;;5.03;3.40;;;9.40;90.20;;;;;;5075463;28;20254;-74
2022/04/17 08:18:50;;;;;;;4.73;3.33;;;9.60;85.10;;;;;;5075319;28;20197;-74
2022/04/17 08:21:17;;;;;;;6.43;3.30;;;9.70;79.50;;;;;;5074891;28;20201;-75
2022/04/17 08:23:45;;;;;;;4.00;2.80;;;9.50;69.80;;;;;;5075322;28;20660;-74
2022/04/17 08:26:12;;;;;;;3.70;2.57;;;9.60;66.60;;;;;;5075416;28;20602;-75
2022/04/17 08:28:38;;;;;;;3.67;2.80;;;9.70;59.90;;;;;;5075235;28;20204;-75
2022/04/17 08:31:06;;;;;;;4.63;3.07;;;9.70;59.80;;;;;;5075252;28;20201;-75
2022/04/17 08:33:33;;;;;;;3.80;3.10;;;9.80;58.80;;;;;;5074903;28;20220;-74
2022/04/17 08:35:59;;;;;;;4.40;2.90;;;10.10;57.40;;;;;;5075301;28;20254;-76
2022/04/17 08:38:26;;;;;;;4.33;2.93;;;10.30;54.30;;;;;;5075250;28;20250;-75
2022/04/17 08:40:57;;;;;;;3.33;3.03;;;10.40;54.10;;;;;;5075001;28;20247;-75
2022/04/17 08:43:24;;;;;;;3.40;2.83;;;10.70;55.00;;;;;;5074981;28;20247;-76
2022/04/17 08:45:53;;;;;;;4.83;2.63;;;10.80;50.20;;;;;;5074030;28;20209;-75
2022/04/17 08:48:19;;;;;;;5.20;3.60;;;11.00;50.50;;;;;;5074712;28;20200;-74
2022/04/17 08:50:48;;;;;;;3.00;2.60;;;11.20;49.00;;;;;;5075035;28;20242;-74
2022/04/17 08:53:16;;;;;;;4.90;2.90;;;11.20;45.30;;;;;;5074743;28;20655;-75
2022/04/17 08:55:44;;;;;;;5.43;2.70;;;11.20;44.10;;;;;;5074697;28;20201;-75
2022/04/17 08:58:12;;;;;;;3.63;3.03;;;11.20;43.30;;;;;;5074628;28;20205;-76
2022/04/17 09:00:39;;;;;;;5.13;3.20;;;11.30;43.90;;;;;;5074494;28;20227;-74
2022/04/17 09:03:08;;;;;;;4.73;3.30;;;11.50;43.90;;;;;;5074649;28;20204;-76
2022/04/17 09:05:37;;;;;;;5.83;3.27;;;11.60;41.30;;;;;;5074607;28;20199;-75
2022/04/17 09:08:14;;;;;;;3.90;2.70;;;11.80;41.50;;;;;;5074523;28;20197;-75
2022/04/17 09:10:41;;;;;;;4.23;2.70;;;11.90;40.70;;;;;;5074504;28;20543;-75
2022/04/17 09:13:08;;;;;;;2.80;2.50;;;11.20;38.30;;;;;;5074265;28;20200;-75
2022/04/17 09:15:37;;;;;;;4.27;2.63;;;11.50;39.50;;;;;;5074230;28;20213;-75
2022/04/17 09:18:07;;;;;;;2.97;2.73;;;11.70;38.60;;;;;;5074388;28;20256;-75
2022/04/17 09:20:34;;;;;;;4.43;2.70;;;12.20;39.10;;;;;;5074314;28;20197;-75
2022/04/17 09:23:01;;;;;;;4.00;2.60;;;12.60;39.30;;;;;;5074143;28;20593;-75
2022/04/17 09:25:29;;;;;;;4.03;2.60;;;13.00;36.20;;;;;;5074115;28;20623;-75
2022/04/17 09:27:57;;;;;;;4.23;2.63;;;13.30;34.50;;;;;;5074092;28;20658;-75
2022/04/17 09:30:28;;;;;;;3.90;2.70;;;13.30;32.80;;;;;;5074250;28;20201;-75
2022/04/17 09:32:57;;;;;;;3.20;2.70;;;13.40;34.30;;;;;;5074460;28;20197;-75
2022/04/17 09:35:24;;;;;;;4.53;2.73;;;13.70;31.50;;;;;;5074045;28;20630;-75
2022/04/17 09:37:55;;;;;;;4.63;2.80;;;13.80;30.60;;;;;;5073988;28;20201;-75
2022/04/17 09:40:23;;;;;;;3.50;2.90;;;13.90;30.30;;;;;;5073816;28;20304;-75
2022/04/17 09:42:50;;;;;;;3.70;3.07;;;14.20;29.70;;;;;;5073986;28;20258;-75
2022/04/17 09:45:16;;;;;;;3.80;2.93;;;14.50;28.80;;;;;;5073982;28;20201;-76
2022/04/17 09:47:57;;;;;;;3.90;2.80;;;14.60;29.10;;;;;;5073952;28;20623;-76
2022/04/17 09:50:32;;;;;;;4.33;3.13;;;15.10;29.10;;;;;;5073591;28;20199;-76
2022/04/17 09:53:03;;;;;;;3.78;2.70;;;15.40;27.80;;;;;;5073425;28;20201;-74
2022/04/17 09:55:31;;;;;;;3.13;2.78;;;14.60;26.80;;;;;;5073729;28;20628;-74
2022/04/17 09:57:59;;;;;;;4.50;3.03;;;15.10;28.40;;;;;;5073550;28;20226;-76
2022/04/17 10:00:26;;;;;;;2.75;2.45;;;15.40;27.70;;;;;;5073440;28;20197;-75
2022/04/17 10:02:53;;;;;;;3.47;2.78;;;15.60;26.30;;;;;;5073163;28;20714;-74
2022/04/17 10:05:22;;;;;;;2.97;2.65;;;15.90;26.50;;;;;;5073078;28;20718;-75
2022/04/17 10:07:50;;;;;;;4.13;2.85;;;16.20;26.00;;;;;;5073336;28;20288;-75
2022/04/17 10:10:18;;;;;;;3.55;2.70;;;16.40;25.20;;;;;;5073189;28;20207;-75
2022/04/17 10:12:46;;;;;;;6.28;2.97;;;16.80;24.90;;;;;;5073171;28;20258;-75
2022/04/17 10:15:14;;;;;;;6.47;2.95;;;16.60;22.80;;;;;;5072943;28;20225;-75
2022/04/17 10:17:44;;;;;;;4.88;2.55;;;16.70;22.50;;;;;;5072914;28;20201;-75
2022/04/17 10:20:13;;;;;;;2.80;2.58;;;17.00;22.50;;;;;;5073023;28;20560;-75
2022/04/17 10:22:43;;;;;;;3.45;2.70;;;17.40;22.40;;;;;;5072756;28;20229;-75
2022/04/17 10:25:11;;;;;;;3.63;2.80;;;17.80;22.20;;;;;;5073187;28;20205;-75
2022/04/17 10:27:45;;;;;;;3.40;3.10;;;17.80;21.60;;;;;;5073033;28;20200;-75
2022/04/17 10:30:15;;;;;;;4.63;3.20;;;17.90;21.60;;;;;;5072824;28;20652;-75
2022/04/17 10:33:09;;;;;;;3.13;2.83;;;18.50;20.50;;;;;;5073984;28;20208;-76
2022/04/17 10:35:41;;;;;;;3.50;3.20;;;19.10;19.90;;;;;;5067106;28;20229;-75
2022/04/17 10:38:29;;;;;;;7.28;3.53;;;19.50;19.60;;;;;;5074224;28;20201;-76
2022/04/17 10:40:59;;;;;;;5.72;3.20;;;19.50;19.20;;;;;;5074076;28;20254;-76
2022/04/17 10:43:33;;;;;;;4.70;3.10;;;19.70;19.30;;;;;;5074306;28;20197;-76
2022/04/17 10:46:13;;;;;;;3.60;2.90;;;20.10;18.90;;;;;;5074400;28;20211;-76
2022/04/17 10:48:44;;;;;;;4.55;2.78;;;20.20;18.60;;;;;;5072895;28;20273;-76
2022/04/17 10:51:22;;;;;;;4.18;2.97;;;20.50;18.30;;;;;;5072669;28;20201;-76
2022/04/17 10:54:04;;;;;;;3.78;3.10;;;21.20;17.90;;;;;;5072873;28;20200;-76
2022/04/17 10:56:33;;;;;;;3.00;2.70;;;21.40;16.60;;;;;;5072883;28;20196;-76
2022/04/17 10:59:03;;;;;;;3.28;2.80;;;19.80;17.30;;;;;;5073347;28;20193;-76
2022/04/17 11:01:51;;;;;;;2.75;2.53;;;20.70;17.40;;;;;;5073255;28;20193;-76
2022/04/17 11:04:19;;;;;;;2.53;2.33;;;20.60;15.40;;;;;;5073151;28;20229;-76
2022/04/17 11:06:47;;;;;;;3.33;2.70;;;20.90;15.20;;;;;;5072775;28;20201;-75
2022/04/17 11:09:21;;;;;;;4.30;2.70;;;20.90;15.40;;;;;;5075192;28;20557;-75
2022/04/17 11:11:48;;;;;;;3.65;2.50;;;21.30;15.20;;;;;;5077092;28;20204;-75
2022/04/17 11:14:17;;;;;;;3.30;2.40;;;20.80;13.90;;;;;;5076682;28;20251;-76
2022/04/17 11:16:47;;;;;;;2.72;2.50;;;20.70;14.30;;;;;;5076542;28;20205;-76
2022/04/17 11:19:15;;;;;;;5.10;2.60;;;21.60;13.90;;;;;;5076532;28;20239;-76
2022/04/17 11:21:44;;;;;;;3.72;2.67;;;22.40;14.10;;;;;;5076251;28;20228;-76
2022/04/17 11:24:11;;;;;;;3.72;2.50;;;23.30;12.90;;;;;;5076360;28;20269;-75
2022/04/17 11:27:13;;;;;;;3.00;2.47;;;24.00;11.80;;;;;;5076193;28;20197;-76
2022/04/17 11:29:43;;;;;;;2.40;2.20;;;23.90;11.30;;;;;;5076360;28;20658;-76
2022/04/17 11:32:50;;;;;;;2.90;2.33;;;24.00;10.40;;;;;;5076300;28;20193;-76
2022/04/17 11:35:20;;;;;;;2.70;2.50;;;23.80;10.90;;;;;;5076026;28;20225;-75
2022/04/17 11:37:52;;;;;;;3.63;2.40;;;24.30;10.60;;;;;;5076173;28;20201;-76
2022/04/17 11:40:21;;;;;;;2.47;2.28;;;25.10;10.20;;;;;;5076032;28;20204;-76
2022/04/17 11:42:50;;;;;;;3.63;2.70;;;25.10;8.50;;;;;;5076137;28;20246;-76
2022/04/17 11:45:18;;;;;;;3.30;2.80;;;25.40;8.90;;;;;;5075767;28;20197;-76
2022/04/17 11:47:47;;;;;;;3.53;2.60;;;25.70;8.90;;;;;;5075909;28;20228;-76
2022/04/17 11:50:22;;;;;;;2.80;2.38;;;25.40;8.80;;;;;;5075962;28;20257;-76
2022/04/17 11:52:52;;;;;;;8.23;2.53;;;23.70;10.20;;;;;;5075910;28;20196;-75
2022/04/17 11:55:24;;;;;;;3.00;2.70;;;24.30;10.50;;;;;;5075763;28;20200;-75
2022/04/17 11:57:53;;;;;;;2.50;2.30;;;24.40;10.10;;;;;;5075787;28;20201;-75
2022/04/17 12:00:19;;;;;;;4.10;2.20;;;25.10;9.20;;;;;;5075592;28;20664;-76
2022/04/17 12:02:46;;;;;;;2.42;2.22;;;25.40;9.20;;;;;;5076002;28;20254;-76
2022/04/17 12:05:14;;;;;;;2.63;2.30;;;25.80;8.50;;;;;;5075444;28;20707;-76
2022/04/17 12:07:44;;;;;;;3.45;2.50;;;25.70;8.80;;;;;;5076189;28;20656;-76
2022/04/17 12:10:13;;;;;;;4.85;2.60;;;25.30;8.10;;;;;;5075873;28;20201;-76
2022/04/17 12:12:41;;;;;;;8.20;3.00;;;25.60;8.10;;;;;;5075988;28;20203;-77
2022/04/17 12:15:11;;;;;;;2.65;2.17;;;25.10;8.20;;;;;;5076060;28;20283;-76
2022/04/17 12:17:38;;;;;;;2.95;2.35;;;25.00;8.50;;;;;;5076605;28;20192;-76
2022/04/17 12:20:08;;;;;;;2.90;2.20;;;24.30;8.30;;;;;;5074308;28;20573;-75
2022/04/17 12:22:35;;;;;;;2.78;2.53;;;24.70;8.40;;;;;;5075192;28;20232;-76
2022/04/17 12:25:02;;;;;;;4.95;2.30;;;25.30;7.90;;;;;;5075185;28;20236;-76
2022/04/17 12:27:29;;;;;;;2.88;2.58;;;25.30;7.60;;;;;;5075578;28;20606;-75
2022/04/17 12:29:57;;;;;;;2.20;2.00;;;25.10;7.60;;;;;;5075544;28;20241;-75
2022/04/17 12:32:26;;;;;;;2.92;2.35;;;25.60;7.70;;;;;;5075212;28;20231;-75
2022/04/17 12:35:00;;;;;;;2.33;2.13;;;25.20;7.10;;;;;;5074830;28;20196;-76
2022/04/17 12:37:29;;;;;;;4.10;2.30;;;25.30;7.20;;;;;;5074815;28;20203;-76
2022/04/17 12:40:11;;;;;;;2.50;2.30;;;26.00;7.50;;;;;;5074860;28;20286;-75
2022/04/17 12:42:37;;;;;;;2.78;2.47;;;26.20;6.90;;;;;;5074967;28;20250;-74
2022/04/17 12:45:05;;;;;;;2.53;2.33;;;26.90;5.80;;;;;;5074773;28;20243;-75
2022/04/17 12:47:33;;;;;;;2.40;2.20;;;26.60;6.10;;;;;;5074998;28;20242;-76
2022/04/17 12:50:05;;;;;;;2.90;2.17;;;27.40;6.10;;;;;;5074669;28;20270;-75
2022/04/17 12:52:32;;;;;;;3.00;2.03;;;27.70;5.70;;;;;;5074857;28;20201;-76
2022/04/17 12:55:07;;;;;;;2.50;2.30;;;27.10;5.30;;;;;;5074663;28;20647;-75
2022/04/17 12:57:34;;;;;;;2.80;2.15;;;26.40;5.80;;;;;;5074671;28;20270;-76
2022/04/17 13:00:00;;;;;;;2.47;2.00;;;26.70;6.10;;;;;;5074641;28;20205;-75
2022/04/17 13:02:28;;;;;;;2.60;2.03;;;27.50;5.40;;;;;;5074452;28;20196;-77
2022/04/17 13:04:59;;;;;;;2.97;2.00;;;27.10;5.20;;;;;;5074844;28;20271;-76